1899 NOT_NAMED (1899011S14125)


IBTrACS version v04r00. Visit IBTrACS website for data access.
Please direct all questions to the IBTrACS Q and A forum

Storm track - Intensity - Wind Radii - Intensity Data - Source Data - All data

Summary Information

Storm ID 1899011S14125
Start Jan 10 12Z
Landfall Jan 13 12Z
End Jan 20 00Z
ATCF IDs
Track status Best track data.

Storm track plot

Map of storm track

Intensity plots

No Intensity information for this storm


Radial wind information

No radial wind information for this storm


Position and Intensity Table

BASIN ISO_TIME_________ NATURE LAT LON
degrees north degrees east
SI 1899-01-10 12:00:00 NR -14.00 125.00
SI 15:00:00 NR -13.97 124.96
SI 18:00:00 NR -13.97 124.87
SI 21:00:00 NR -14.04 124.70
SI 1899-01-11 00:00:00 NR -14.20 124.40
SI 03:00:00 NR -14.48 123.95
SI 06:00:00 NR -14.85 123.39
SI 09:00:00 NR -15.30 122.79
SI 12:00:00 NR -15.80 122.20
SI 15:00:00 NR -16.37 121.66
SI 18:00:00 NR -16.97 121.15
SI 21:00:00 NR -17.53 120.72
SI 1899-01-12 00:00:00 NR -18.00 120.40
SI 03:00:00 NR -18.29 120.23
SI 06:00:00 NR -18.48 120.17
SI 09:00:00 NR -18.60 120.18
SI 12:00:00 NR -18.70 120.20
SI 15:00:00 NR -18.82 120.17
SI 18:00:00 NR -18.93 120.15
SI 21:00:00 NR -19.05 120.13
SI 1899-01-13 00:00:00 NR -19.20 120.10
SI 03:00:00 NR -19.42 120.02
SI 06:00:00 NR -19.66 119.93
SI 09:00:00 NR -19.89 119.88
SI 12:00:00 NR -20.10 119.90
SI 15:00:00 NR -20.25 120.04
SI 18:00:00 NR -20.37 120.24
SI 21:00:00 NR -20.45 120.47
SI 1899-01-14 00:00:00 NR -20.50 120.70
SI 03:00:00 NR -20.52 120.86
SI 06:00:00 NR -20.52 121.02
SI 09:00:00 NR -20.51 121.16
SI 12:00:00 NR -20.50 121.30
SI 15:00:00 NR -20.51 121.44
SI 18:00:00 NR -20.52 121.59
SI 21:00:00 NR -20.55 121.74
SI 1899-01-15 00:00:00 NR -20.60 121.90
SI 03:00:00 NR -20.66 122.10
SI 06:00:00 NR -20.75 122.31
SI 09:00:00 NR -20.86 122.51
SI 12:00:00 NR -21.00 122.70
SI 15:00:00 NR -21.04 122.79
SI 18:00:00 NR -21.14 122.87
SI 21:00:00 NR -21.36 122.98
SI 1899-01-16 00:00:00 NR -21.80 123.20
SI 03:00:00 NR -22.59 123.45
SI 06:00:00 NR -23.59 123.82
SI 09:00:00 NR -24.66 124.39
SI 12:00:00 NR -25.70 125.20
SI 15:00:00 NR -26.51 126.49
SI 18:00:00 NR -27.25 128.00
SI 21:00:00 NR -27.94 129.52
SI 1899-01-17 00:00:00 NR -28.60 130.80
SI 03:00:00 NR -29.31 131.57
SI 06:00:00 NR -30.03 132.06
SI 09:00:00 NR -30.73 132.37
SI 12:00:00 NR -31.40 132.60
SI 15:00:00 NR -32.02 132.83
SI 18:00:00 NR -32.62 133.00
SI 21:00:00 NR -33.21 133.20
SI 1899-01-18 00:00:00 NR -33.80 133.50
SI 03:00:00 NR -34.47 134.01
SI 06:00:00 NR -35.13 134.64
SP 09:00:00 NR -35.76 135.36
SP 12:00:00 NR -36.30 136.10
SP 15:00:00 NR -36.72 136.79
SP 18:00:00 NR -37.05 137.50
SP 21:00:00 NR -37.34 138.23
SP 1899-01-19 00:00:00 NR -37.60 139.00
SP 03:00:00 NR -37.92 139.83
SP 06:00:00 NR -38.22 140.69
SP 09:00:00 NR -38.48 141.56
SP 12:00:00 NR -38.70 142.40
SP 15:00:00 NR -38.86 143.20
SP 18:00:00 NR -38.97 143.95
SP 21:00:00 NR -39.04 144.68
SP 1899-01-20 00:00:00 NR -39.10 145.40

Source Information

Agency Information
USA
TOKYO
CMA
HKO
NEWDELHI
REUNION
BOM
NADI
WELLINGTON
DS824
TD9636 cons_worldwide_trop_cyclone_18710101-19891231-006:Line=83
TD9635
NEUMANN
MLC

All available IBTrACS Data

SEASON BASIN SUBBASIN ISO_TIME_________ NATURE LAT LON DIST2LAND LANDFALL IFLAG USA SSHS TD9636 LAT TD9636 LON TD9636 STAGE STORM SPEED STORM DIR
Year degrees north degrees east km km 1 degrees north degrees east kts degrees
1899 SI WA 1899-01-10 12:00:00 NR -14.00 125.00 70 70 __________O___ -1 -14.00 125.00 7 1 301
1899 SI WA 15:00:00 NR -13.97 124.96 70 70 __________P___ -1 -13.97 124.96 7 1 282
1899 SI WA 18:00:00 NR -13.97 124.87 74 74 __________P___ -1 -13.97 124.87 7 3 255
1899 SI WA 21:00:00 NR -14.04 124.70 86 77 __________P___ -1 -14.04 124.70 7 5 244
1899 SI WA 1899-01-11 00:00:00 NR -14.20 124.40 97 97 __________O___ -1 -14.20 124.40 7 8 239
1899 SI WA 03:00:00 NR -14.48 123.95 124 124 __________P___ -1 -14.48 123.95 7 12 236
1899 SI WA 06:00:00 NR -14.85 123.39 132 132 __________P___ -1 -14.85 123.39 7 14 234
1899 SI WA 09:00:00 NR -15.30 122.79 134 104 __________P___ -1 -15.30 122.79 7 15 230
1899 SI WA 12:00:00 NR -15.80 122.20 108 108 __________O___ -1 -15.80 122.20 7 15 226
1899 SI WA 15:00:00 NR -16.37 121.66 101 100 __________P___ -1 -16.37 121.66 7 15 221
1899 SI WA 18:00:00 NR -16.97 121.15 111 111 __________P___ -1 -16.97 121.15 7 15 218
1899 SI WA 21:00:00 NR -17.53 120.72 148 146 __________P___ -1 -17.53 120.72 7 13 215
1899 SI WA 1899-01-12 00:00:00 NR -18.00 120.40 152 148 __________O___ -1 -18.00 120.40 7 9 212
1899 SI WA 03:00:00 NR -18.29 120.23 161 143 __________P___ -1 -18.29 120.23 7 5 204
1899 SI WA 06:00:00 NR -18.48 120.17 143 133 __________P___ -1 -18.48 120.17 7 3 190
1899 SI WA 09:00:00 NR -18.60 120.18 133 123 __________P___ -1 -18.60 120.18 7 2 176
1899 SI WA 12:00:00 NR -18.70 120.20 123 113 __________O___ -1 -18.70 120.20 7 2 184
1899 SI WA 15:00:00 NR -18.82 120.17 113 103 __________P___ -1 -18.82 120.17 7 2 188
1899 SI WA 18:00:00 NR -18.93 120.15 109 98 __________P___ -1 -18.93 120.15 7 2 189
1899 SI WA 21:00:00 NR -19.05 120.13 88 78 __________P___ -1 -19.05 120.13 7 3 189
1899 SI WA 1899-01-13 00:00:00 NR -19.20 120.10 78 59 __________O___ -1 -19.20 120.10 7 4 196
1899 SI WA 03:00:00 NR -19.42 120.02 59 39 __________P___ -1 -19.42 120.02 7 5 199
1899 SI WA 06:00:00 NR -19.66 119.93 33 11 __________P___ -1 -19.66 119.93 7 5 195
1899 SI WA 09:00:00 NR -19.89 119.88 11 0 __________P___ -1 -19.89 119.88 7 4 185
1899 SI WA 12:00:00 NR -20.10 119.90 0 0 __________O___ -1 -20.10 119.90 7 4 158
1899 SI WA 15:00:00 NR -20.25 120.04 0 0 __________P___ -1 -20.25 120.04 7 4 130
1899 SI WA 18:00:00 NR -20.37 120.24 0 0 __________P___ -1 -20.37 120.24 7 5 116
1899 SI WA 21:00:00 NR -20.45 120.47 0 0 __________P___ -1 -20.45 120.47 7 5 107
1899 SI WA 1899-01-14 00:00:00 NR -20.50 120.70 0 0 __________O___ -1 -20.50 120.70 7 4 102
1899 SI WA 03:00:00 NR -20.52 120.86 0 0 __________P___ -1 -20.52 120.86 7 3 94
1899 SI WA 06:00:00 NR -20.52 121.02 0 0 __________P___ -1 -20.52 121.02 7 3 87
1899 SI WA 09:00:00 NR -20.51 121.16 0 0 __________P___ -1 -20.51 121.16 7 3 85
1899 SI WA 12:00:00 NR -20.50 121.30 0 0 __________O___ -1 -20.50 121.30 7 3 89
1899 SI WA 15:00:00 NR -20.51 121.44 0 0 __________P___ -1 -20.51 121.44 7 3 94
1899 SI WA 18:00:00 NR -20.52 121.59 0 0 __________P___ -1 -20.52 121.59 7 3 99
1899 SI WA 21:00:00 NR -20.55 121.74 0 0 __________P___ -1 -20.55 121.74 7 3 105
1899 SI WA 1899-01-15 00:00:00 NR -20.60 121.90 0 0 __________O___ -1 -20.60 121.90 7 4 109
1899 SI WA 03:00:00 NR -20.66 122.10 0 0 __________P___ -1 -20.66 122.10 7 4 111
1899 SI WA 06:00:00 NR -20.75 122.31 0 0 __________P___ -1 -20.75 122.31 7 4 117
1899 SI WA 09:00:00 NR -20.86 122.51 0 0 __________P___ -1 -20.86 122.51 7 4 124
1899 SI WA 12:00:00 NR -21.00 122.70 0 0 __________O___ -1 -21.00 122.70 7 3 126
1899 SI WA 15:00:00 NR -21.04 122.79 0 0 __________P___ -1 -21.04 122.79 7 2 132
1899 SI WA 18:00:00 NR -21.14 122.87 0 0 __________P___ -1 -21.14 122.87 7 4 150
1899 SI WA 21:00:00 NR -21.36 122.98 0 0 __________P___ -1 -21.36 122.98 7 7 155
1899 SI WA 1899-01-16 00:00:00 NR -21.80 123.20 0 0 __________O___ -1 -21.80 123.20 7 13 161
1899 SI WA 03:00:00 NR -22.59 123.45 0 0 __________P___ -1 -22.59 123.45 7 19 162
1899 SI WA 06:00:00 NR -23.59 123.82 0 0 __________P___ -1 -23.59 123.82 7 23 158
1899 SI WA 09:00:00 NR -24.66 124.39 0 0 __________P___ -1 -24.66 124.39 7 25 149
1899 SI WA 12:00:00 NR -25.70 125.20 0 0 __________O___ -1 -25.70 125.20 7 27 134
1899 SI WA 15:00:00 NR -26.51 126.49 0 0 __________P___ -1 -26.51 126.49 7 30 122
1899 SI WA 18:00:00 NR -27.25 128.00 0 0 __________P___ -1 -27.25 128.00 7 31 118
1899 SI WA 21:00:00 NR -27.94 129.52 0 0 __________P___ -1 -27.94 129.52 7 28 119
1899 SI WA 1899-01-17 00:00:00 NR -28.60 130.80 0 0 __________O___ -1 -28.60 130.80 7 23 127
1899 SI WA 03:00:00 NR -29.31 131.57 0 0 __________P___ -1 -29.31 131.57 7 18 142
1899 SI WA 06:00:00 NR -30.03 132.06 0 0 __________P___ -1 -30.03 132.06 7 16 154
1899 SI WA 09:00:00 NR -30.73 132.37 0 0 __________P___ -1 -30.73 132.37 7 15 161
1899 SI WA 12:00:00 NR -31.40 132.60 0 0 __________O___ -1 -31.40 132.60 7 14 163
1899 SI WA 15:00:00 NR -32.02 132.83 0 0 __________P___ -1 -32.02 132.83 7 13 164
1899 SI WA 18:00:00 NR -32.62 133.00 45 45 __________P___ -1 -32.62 133.00 7 12 165
1899 SI WA 21:00:00 NR -33.21 133.20 86 86 __________P___ -1 -33.21 133.20 7 13 160
1899 SI WA 1899-01-18 00:00:00 NR -33.80 133.50 99 99 __________O___ -1 -33.80 133.50 7 14 152
1899 SI WA 03:00:00 NR -34.47 134.01 101 70 __________P___ -1 -34.47 134.01 7 16 145
1899 SI WA 06:00:00 NR -35.13 134.64 71 71 __________P___ -1 -35.13 134.64 7 17 140
1899 SP EA 09:00:00 NR -35.76 135.36 99 55 __________P___ -1 -35.76 135.36 7 17 135
1899 SP EA 12:00:00 NR -36.30 136.10 55 48 __________O___ -1 -36.30 136.10 7 15 130
1899 SP EA 15:00:00 NR -36.72 136.79 67 67 __________P___ -1 -36.72 136.79 7 13 124
1899 SP EA 18:00:00 NR -37.05 137.50 111 111 __________P___ -1 -37.05 137.50 7 13 118
1899 SP EA 21:00:00 NR -37.34 138.23 132 76 __________P___ -1 -37.34 138.23 7 13 115
1899 SP EA 1899-01-19 00:00:00 NR -37.60 139.00 76 41 __________O___ -1 -37.60 139.00 7 14 115
1899 SP EA 03:00:00 NR -37.92 139.83 41 14 __________P___ -1 -37.92 139.83 7 15 115
1899 SP EA 06:00:00 NR -38.22 140.69 22 0 __________P___ -1 -38.22 140.69 7 15 113
1899 SP EA 09:00:00 NR -38.48 141.56 14 14 __________P___ -1 -38.48 141.56 7 14 110
1899 SP EA 12:00:00 NR -38.70 142.40 33 14 __________O___ -1 -38.70 142.40 7 13 106
1899 SP EA 15:00:00 NR -38.86 143.20 20 0 __________P___ -1 -38.86 143.20 7 12 102
1899 SP EA 18:00:00 NR -38.97 143.95 34 34 __________P___ -1 -38.97 143.95 7 12 99
1899 SP EA 21:00:00 NR -39.04 144.68 58 47 __________P___ -1 -39.04 144.68 7 11 97
1899 SP EA 1899-01-20 00:00:00 NR -39.10 145.40 47 __________O___ -1 -39.10 145.40 7 11 96